createdAt,value
2023-01-25T00:02:11.010Z,103424.97
2023-01-25T00:04:40.456Z,103414.53
2023-01-25T00:07:09.848Z,103420.91
2023-01-25T00:09:39.306Z,103419.28
2023-01-25T00:12:08.966Z,103410.06
2023-01-25T00:14:38.383Z,103407.94
2023-01-25T00:17:10.534Z,103403.56
2023-01-25T00:19:39.949Z,103398.59
2023-01-25T00:22:09.405Z,103388.06
2023-01-25T00:24:38.840Z,103386.88
2023-01-25T00:27:08.223Z,103393.94
2023-01-25T00:29:37.577Z,103392.34
2023-01-25T00:32:45.342Z,103393.34
2023-01-25T00:35:15.349Z,103393.25
2023-01-25T00:37:46.213Z,103391.50
2023-01-25T00:40:15.975Z,103391.94
2023-01-25T00:42:45.490Z,103391.41
2023-01-25T00:45:15.534Z,103387.47
2023-01-25T00:47:47.595Z,103385.16
2023-01-25T00:50:17.040Z,103374.09
2023-01-25T00:52:46.460Z,103376.53
2023-01-25T00:55:16.040Z,103359.78
2023-01-25T00:57:45.472Z,103355.66
2023-01-25T01:00:16.027Z,103355.84
2023-01-25T01:02:48.063Z,103352.47
2023-01-25T01:05:17.872Z,103357.66
2023-01-25T01:07:47.305Z,103355.56
2023-01-25T01:10:17.162Z,103343.13
2023-01-25T01:12:46.577Z,103329.81
2023-01-25T01:15:15.947Z,103343.78
2023-01-25T01:17:47.905Z,103357.16
2023-01-25T01:20:17.565Z,103360.63
2023-01-25T01:22:46.980Z,103359.69
2023-01-25T01:25:16.425Z,103369.63
2023-01-25T01:27:45.811Z,103351.09
2023-01-25T01:30:16.007Z,103357.50
2023-01-25T01:32:48.122Z,103355.94
2023-01-25T01:35:17.808Z,103369.22
2023-01-25T01:37:47.252Z,103367.00
2023-01-25T01:40:17.597Z,103367.72
2023-01-25T01:43:00.334Z,103366.19
2023-01-25T01:45:53.900Z,103367.63
2023-01-25T01:48:34.190Z,103351.00
2023-01-25T01:51:05.902Z,103344.94
2023-01-25T01:53:36.207Z,103343.19
2023-01-25T01:56:08.457Z,103334.59
2023-01-25T01:58:39.537Z,103336.94
2023-01-25T02:01:09.015Z,103342.50
2023-01-25T02:03:50.722Z,103342.69
2023-01-25T02:06:27.004Z,103349.69
2023-01-25T02:08:56.720Z,103335.91
2023-01-25T02:11:27.079Z,103339.56
2023-01-25T02:13:57.579Z,103344.53
2023-01-25T02:16:29.366Z,103334.00
2023-01-25T02:19:03.743Z,103326.28
2023-01-25T02:21:38.367Z,103333.03
2023-01-25T02:24:12.097Z,103332.72
2023-01-25T02:26:44.699Z,103339.09
2023-01-25T02:29:14.492Z,103336.75
2023-01-25T02:31:47.161Z,103329.47
2023-01-25T02:34:16.639Z,103323.72
2023-01-25T02:36:46.104Z,103314.28
2023-01-25T02:39:20.388Z,103313.25
2023-01-25T02:41:52.601Z,103299.28
2023-01-25T02:44:24.910Z,103297.41
2023-01-25T02:46:54.545Z,103289.59
2023-01-25T02:49:24.417Z,103282.13
2023-01-25T02:51:57.325Z,103282.28
2023-01-25T02:54:27.852Z,103282.50
2023-01-25T02:56:59.895Z,103278.94
2023-01-25T02:59:29.345Z,103285.53
2023-01-25T03:01:58.894Z,103283.19
2023-01-25T03:04:28.480Z,103278.22
2023-01-25T03:06:57.973Z,103273.38
2023-01-25T03:09:27.348Z,103275.97
2023-01-25T03:11:59.298Z,103279.50
2023-01-25T03:14:28.715Z,103271.03
2023-01-25T03:16:58.162Z,103268.72
2023-01-25T03:19:27.577Z,103267.47
2023-01-25T03:21:58.023Z,103262.50
2023-01-25T03:24:27.505Z,103253.28
2023-01-25T03:27:16.968Z,103236.41
2023-01-25T03:29:46.473Z,103232.34
2023-01-25T03:32:16.175Z,103230.63
2023-01-25T03:34:45.635Z,103237.81
2023-01-25T03:37:15.229Z,103226.78
2023-01-25T03:39:44.871Z,103238.75
2023-01-25T03:42:16.931Z,103233.16
2023-01-25T03:44:46.338Z,103229.41
2023-01-25T03:47:16.391Z,103221.41
2023-01-25T03:49:46.026Z,103211.97
2023-01-25T03:52:15.461Z,103206.28
2023-01-25T03:54:44.839Z,103193.94
2023-01-25T03:57:16.906Z,103194.94
2023-01-25T03:59:46.289Z,103194.50
2023-01-25T04:02:15.765Z,103210.22
2023-01-25T04:04:45.173Z,103214.16
2023-01-25T04:07:14.647Z,103204.78
2023-01-25T04:09:44.016Z,103208.19
2023-01-25T04:12:16.045Z,103207.41
2023-01-25T04:14:45.479Z,103199.38
2023-01-25T04:17:14.965Z,103198.19
2023-01-25T04:19:44.391Z,103194.00
2023-01-25T04:22:13.803Z,103193.91
2023-01-25T04:24:43.214Z,103186.09
2023-01-25T04:27:12.994Z,103188.63
2023-01-25T04:29:44.979Z,103188.03
2023-01-25T04:32:14.443Z,103191.69
2023-01-25T04:34:43.878Z,103177.19
2023-01-25T04:37:13.303Z,103177.81
2023-01-25T04:39:42.676Z,103183.25
2023-01-25T04:42:12.060Z,103176.81
2023-01-25T04:44:41.462Z,103173.97
2023-01-25T04:47:13.494Z,103171.03
2023-01-25T04:49:42.863Z,103163.50
2023-01-25T04:52:12.324Z,103170.53
2023-01-25T04:54:41.753Z,103172.53
2023-01-25T04:57:13.297Z,103164.56
2023-01-25T04:59:42.750Z,103161.53
2023-01-25T05:02:14.838Z,103164.28
2023-01-25T05:04:44.309Z,103164.34
2023-01-25T05:07:13.932Z,103166.16
2023-01-25T05:09:43.315Z,103159.50
2023-01-25T05:12:14.134Z,103162.53
2023-01-25T05:14:43.507Z,103171.22
2023-01-25T05:17:15.627Z,103162.00
2023-01-25T05:19:45.093Z,103148.34
2023-01-25T05:22:17.289Z,103161.94
2023-01-25T05:24:47.221Z,103157.16
2023-01-25T05:27:16.737Z,103157.03
2023-01-25T05:29:47.395Z,103158.75
2023-01-25T05:32:21.614Z,103160.88
2023-01-25T05:34:51.365Z,103166.38
2023-01-25T05:37:22.801Z,103179.88
2023-01-25T05:39:52.497Z,103173.34
2023-01-25T05:42:22.028Z,103181.31
2023-01-25T05:44:51.464Z,103179.53
2023-01-25T05:47:23.451Z,103176.19
2023-01-25T05:49:52.845Z,103177.31
2023-01-25T05:52:22.514Z,103183.19
2023-01-25T05:54:52.239Z,103186.16
2023-01-25T05:57:21.643Z,103175.44
2023-01-25T05:59:51.035Z,103176.47
2023-01-25T06:02:23.363Z,103189.28
2023-01-25T06:04:52.809Z,103187.66
2023-01-25T06:07:24.515Z,103184.84
2023-01-25T06:09:54.139Z,103188.81
2023-01-25T06:12:24.107Z,103187.50
2023-01-25T06:14:53.856Z,103195.47
2023-01-25T06:17:25.955Z,103202.84
2023-01-25T06:19:55.376Z,103205.81
2023-01-25T06:22:24.788Z,103211.09
2023-01-25T06:24:54.206Z,103211.50
2023-01-25T06:27:23.675Z,103210.22
2023-01-25T06:29:53.201Z,103207.38
2023-01-25T06:32:24.194Z,103211.09
2023-01-25T06:34:56.243Z,103208.88
2023-01-25T06:37:25.603Z,103215.75
2023-01-25T06:39:55.058Z,103215.88
2023-01-25T06:42:26.728Z,103222.25
2023-01-25T06:44:56.480Z,103222.47
2023-01-25T06:47:25.980Z,103230.34
2023-01-25T06:49:57.977Z,103235.38
2023-01-25T06:52:27.433Z,103230.06
2023-01-25T06:54:56.814Z,103233.56
2023-01-25T06:57:26.378Z,103232.66
2023-01-25T06:59:55.790Z,103228.25
2023-01-25T07:02:25.240Z,103238.19
2023-01-25T07:04:54.712Z,103228.91
2023-01-25T07:07:26.887Z,103222.19
2023-01-25T07:09:56.303Z,103220.09
2023-01-25T07:12:26.009Z,103219.00
2023-01-25T07:14:55.446Z,103214.22
2023-01-25T07:17:25.119Z,103209.78
2023-01-25T07:19:54.514Z,103211.69
2023-01-25T07:22:26.629Z,103209.00
2023-01-25T07:24:57.881Z,103206.59
2023-01-25T07:27:27.332Z,103207.25
2023-01-25T07:29:56.719Z,103206.38
2023-01-25T07:32:26.308Z,103205.50
2023-01-25T07:34:55.724Z,103201.31
2023-01-25T07:37:28.236Z,103192.84
2023-01-25T07:39:58.305Z,103198.53
2023-01-25T07:42:28.020Z,103191.81
2023-01-25T07:44:57.448Z,103183.41
2023-01-25T07:47:26.908Z,103188.69
2023-01-25T07:49:56.827Z,103187.28
2023-01-25T07:52:29.286Z,103183.13
2023-01-25T07:54:59.501Z,103180.72
2023-01-25T07:57:28.968Z,103190.38
2023-01-25T07:59:58.382Z,103182.19
2023-01-25T08:02:27.786Z,103170.66
2023-01-25T08:04:57.154Z,103170.75
2023-01-25T08:07:31.387Z,103166.81
2023-01-25T08:10:00.814Z,103168.56
2023-01-25T08:12:30.683Z,103168.53
2023-01-25T08:15:00.109Z,103168.63
2023-01-25T08:17:32.627Z,103164.53
2023-01-25T08:20:02.091Z,103156.25
2023-01-25T08:22:34.701Z,103160.38
2023-01-25T08:25:04.157Z,103144.94
2023-01-25T08:27:33.767Z,103143.63
2023-01-25T08:30:03.246Z,103137.75
2023-01-25T08:32:32.658Z,103149.78
2023-01-25T08:35:02.091Z,103149.75
2023-01-25T08:37:34.082Z,103147.22
2023-01-25T08:40:03.531Z,103141.28
2023-01-25T08:42:32.988Z,103127.44
2023-01-25T08:45:02.948Z,103119.03
2023-01-25T08:47:33.190Z,103112.09
2023-01-25T08:50:02.628Z,103111.09
2023-01-25T08:52:34.663Z,103112.78
2023-01-25T08:55:04.539Z,103106.72
2023-01-25T08:57:34.144Z,103099.53
2023-01-25T09:00:03.514Z,103096.69
2023-01-25T09:02:32.946Z,103096.13
2023-01-25T09:05:02.381Z,103094.50
2023-01-25T09:07:38.546Z,103091.88
2023-01-25T09:10:09.457Z,103094.78
2023-01-25T09:12:39.143Z,103097.69
2023-01-25T09:15:09.819Z,103089.72
2023-01-25T09:17:39.611Z,103074.16
2023-01-25T09:20:10.945Z,103078.81
2023-01-25T09:22:43.039Z,103077.19
2023-01-25T09:25:12.960Z,103077.19
2023-01-25T09:27:42.696Z,103077.69
2023-01-25T09:30:18.825Z,103080.63
2023-01-25T09:32:51.266Z,103079.31
2023-01-25T09:35:23.696Z,103067.91
2023-01-25T09:37:56.182Z,103084.47
2023-01-25T09:40:26.921Z,103076.97
2023-01-25T09:43:03.320Z,103066.97
2023-01-25T09:45:37.325Z,103068.63
2023-01-25T09:48:20.426Z,103056.66
2023-01-25T09:51:13.880Z,103052.94
2023-01-25T09:53:50.660Z,103043.59
2023-01-25T09:56:23.588Z,103046.13
2023-01-25T09:58:54.838Z,103049.50
2023-01-25T10:01:38.008Z,103047.16
2023-01-25T10:04:13.663Z,103054.03
2023-01-25T10:06:55.133Z,103053.31
2023-01-25T10:09:38.927Z,103048.97
2023-01-25T10:12:14.840Z,103047.84
2023-01-25T10:14:44.464Z,103049.16
2023-01-25T10:17:17.284Z,103050.09
2023-01-25T10:20:00.263Z,103035.72
2023-01-25T10:22:32.193Z,103026.66
2023-01-25T10:25:29.987Z,103016.63
2023-01-25T10:28:15.235Z,103012.38
2023-01-25T10:30:50.387Z,103006.44
2023-01-25T10:33:21.631Z,103006.81
2023-01-25T10:35:52.701Z,103001.25
2023-01-25T10:38:26.834Z,102999.06
2023-01-25T10:41:03.027Z,102986.28
2023-01-25T10:43:32.694Z,102991.56
2023-01-25T10:46:02.116Z,102994.47
2023-01-25T10:48:34.793Z,102996.50
2023-01-25T10:51:04.256Z,102994.69
2023-01-25T10:53:37.531Z,102985.47
2023-01-25T10:56:22.509Z,102987.53
2023-01-25T10:58:54.472Z,102970.13
2023-01-25T11:01:33.038Z,102973.28
2023-01-25T11:04:03.891Z,102963.03
2023-01-25T11:06:36.040Z,102958.63
2023-01-25T11:09:10.461Z,102944.94
2023-01-25T11:11:42.752Z,102941.59
2023-01-25T11:14:18.808Z,102937.69
2023-01-25T11:16:50.560Z,102928.66
2023-01-25T11:19:33.738Z,102926.84
2023-01-25T11:22:04.427Z,102929.75
2023-01-25T11:24:35.887Z,102919.28
2023-01-25T11:27:21.211Z,102909.97
2023-01-25T11:30:11.104Z,102899.78
2023-01-25T11:32:41.935Z,102900.56
2023-01-25T11:35:19.600Z,102899.06
2023-01-25T11:38:03.685Z,102894.88
2023-01-25T11:40:39.850Z,102893.50
2023-01-25T11:43:19.930Z,102888.06
2023-01-25T11:46:05.032Z,102879.13
2023-01-25T11:49:01.844Z,102871.88
2023-01-25T11:51:35.315Z,102869.94
2023-01-25T11:54:33.235Z,102856.97
2023-01-25T11:57:04.172Z,102856.19
2023-01-25T11:59:55.938Z,102847.00
2023-01-25T12:02:42.848Z,102841.28
2023-01-25T12:05:22.659Z,102836.25
2023-01-25T12:07:57.645Z,102828.72
2023-01-25T12:10:33.201Z,102827.88
2023-01-25T12:13:05.592Z,102825.81
2023-01-25T12:15:52.483Z,102819.06
2023-01-25T12:18:33.342Z,102814.13
2023-01-25T12:21:20.061Z,102810.16
2023-01-25T12:24:11.332Z,102806.13
2023-01-25T12:26:45.147Z,102798.31
2023-01-25T12:29:22.009Z,102798.41
2023-01-25T12:31:57.885Z,102786.47
2023-01-25T12:34:31.682Z,102783.44
2023-01-25T12:37:03.493Z,102781.34
2023-01-25T12:39:35.906Z,102771.50
2023-01-25T12:42:09.231Z,102775.22
2023-01-25T12:44:41.875Z,102774.34
2023-01-25T12:47:18.815Z,102770.25
2023-01-25T12:49:53.082Z,102753.91
2023-01-25T12:52:26.335Z,102749.53
2023-01-25T12:54:57.079Z,102738.91
2023-01-25T12:57:32.239Z,102727.69
2023-01-25T13:00:09.866Z,102723.22
2023-01-25T13:03:09.767Z,102723.63
2023-01-25T13:05:42.604Z,102707.78
2023-01-25T13:08:31.091Z,102710.84
2023-01-25T13:11:10.561Z,102708.44
2023-01-25T13:13:40.009Z,102696.78
2023-01-25T13:16:34.921Z,102697.16
2023-01-25T13:19:07.006Z,102693.81
2023-01-25T13:21:45.129Z,102687.84
2023-01-25T13:24:25.172Z,102676.56
2023-01-25T13:27:06.355Z,102661.31
2023-01-25T13:30:06.418Z,102658.03
2023-01-25T13:33:06.968Z,102660.22
2023-01-25T13:35:46.344Z,102653.75
2023-01-25T13:38:39.807Z,102652.03
2023-01-25T13:41:15.563Z,102644.59
2023-01-25T13:43:47.177Z,102632.53
2023-01-25T13:46:20.509Z,102636.53
2023-01-25T13:48:55.258Z,102635.28
2023-01-25T13:51:28.325Z,102638.44
2023-01-25T13:53:59.110Z,102639.84
2023-01-25T13:56:33.662Z,102635.69
2023-01-25T13:59:03.504Z,102626.22
2023-01-25T14:01:34.589Z,102623.94
2023-01-25T14:04:06.061Z,102619.28
2023-01-25T14:06:40.805Z,102624.16
2023-01-25T14:09:17.048Z,102625.41
2023-01-25T14:11:48.680Z,102621.81
2023-01-25T14:14:23.854Z,102620.16
2023-01-25T14:17:20.874Z,102623.81
2023-01-25T14:19:52.323Z,102629.78
2023-01-25T14:22:27.460Z,102625.09
2023-01-25T14:25:09.784Z,102608.81
2023-01-25T14:27:43.345Z,102595.75
2023-01-25T14:30:19.710Z,102592.91
2023-01-25T14:32:49.261Z,102590.75
2023-01-25T14:35:43.327Z,102594.78
2023-01-25T14:38:31.042Z,102598.47
2023-01-25T14:41:04.041Z,102598.06
2023-01-25T14:43:33.874Z,102589.91
2023-01-25T14:46:03.327Z,102581.09
2023-01-25T14:48:40.833Z,102565.97
2023-01-25T14:51:21.495Z,102562.41
2023-01-25T14:53:58.694Z,102556.59
2023-01-25T14:56:37.510Z,102560.03
2023-01-25T14:59:07.969Z,102559.53
2023-01-25T15:01:42.082Z,102566.69
2023-01-25T15:04:15.568Z,102563.69
2023-01-25T15:06:49.622Z,102559.94
2023-01-25T15:09:40.183Z,102562.66
2023-01-25T15:12:31.401Z,102557.94
2023-01-25T15:15:02.890Z,102550.59
2023-01-25T15:17:39.143Z,102555.31
2023-01-25T15:20:10.193Z,102547.34
2023-01-25T15:22:39.743Z,102546.97
2023-01-25T15:25:23.884Z,102546.97
2023-01-25T15:27:54.710Z,102535.81
2023-01-25T15:30:24.230Z,102528.38
2023-01-25T15:32:53.777Z,102523.50
2023-01-25T15:35:23.677Z,102518.78
2023-01-25T15:37:53.038Z,102516.09
2023-01-25T15:40:24.988Z,102510.69
2023-01-25T15:42:55.729Z,102501.28
2023-01-25T15:45:25.085Z,102502.88
2023-01-25T15:47:54.480Z,102500.69
2023-01-25T15:50:23.925Z,102484.81
2023-01-25T15:52:53.344Z,102480.22
2023-01-25T15:55:26.761Z,102479.53
2023-01-25T15:57:57.367Z,102477.97
2023-01-25T16:00:27.055Z,102487.34
2023-01-25T16:02:56.507Z,102484.28
2023-01-25T16:05:25.926Z,102475.81
2023-01-25T16:07:55.877Z,102474.75
2023-01-25T16:10:28.031Z,102467.19
2023-01-25T16:12:57.442Z,102463.19
2023-01-25T16:15:26.819Z,102473.66
2023-01-25T16:17:56.239Z,102476.72
2023-01-25T16:20:25.649Z,102469.25
2023-01-25T16:22:55.071Z,102469.25
2023-01-25T16:25:24.553Z,102470.38
2023-01-25T16:27:56.746Z,102473.94
2023-01-25T16:30:31.192Z,102479.97
2023-01-25T16:33:00.790Z,102478.72
2023-01-25T16:35:30.219Z,102481.97
2023-01-25T16:37:59.842Z,102476.91
2023-01-25T16:40:32.599Z,102472.50
2023-01-25T16:43:04.548Z,102463.53
2023-01-25T16:45:33.958Z,102464.28
2023-01-25T16:48:04.018Z,102468.22
2023-01-25T16:50:33.483Z,102460.06
2023-01-25T16:53:03.119Z,102469.66
2023-01-25T16:55:32.565Z,102467.09
2023-01-25T16:58:04.813Z,102475.72
2023-01-25T17:00:34.273Z,102473.38
2023-01-25T17:03:03.688Z,102477.81
2023-01-25T17:05:34.271Z,102479.56
2023-01-25T17:08:03.808Z,102479.97
2023-01-25T17:10:35.839Z,102473.09
2023-01-25T17:13:08.846Z,102474.38
2023-01-25T17:15:38.243Z,102472.44
2023-01-25T17:18:07.703Z,102466.69
2023-01-25T17:20:37.106Z,102461.66
2023-01-25T17:23:06.489Z,102464.66
2023-01-25T17:25:40.518Z,102465.69
2023-01-25T17:28:12.693Z,102465.84
2023-01-25T17:30:43.047Z,102468.38
2023-01-25T17:33:12.910Z,102466.22
2023-01-25T17:35:42.349Z,102463.00
2023-01-25T17:38:11.787Z,102461.16
2023-01-25T17:40:41.163Z,102458.94
2023-01-25T17:43:13.122Z,102444.88
2023-01-25T17:45:42.520Z,102445.59
2023-01-25T17:48:12.832Z,102443.91
2023-01-25T17:50:42.633Z,102446.59
2023-01-25T17:53:13.053Z,102442.84
2023-01-25T17:55:42.456Z,102443.03
2023-01-25T17:58:14.408Z,102428.41
2023-01-25T18:00:43.824Z,102422.25
2023-01-25T18:03:13.458Z,102416.31
2023-01-25T18:05:44.686Z,102424.66
2023-01-25T18:08:14.205Z,102424.66
2023-01-25T18:10:43.989Z,102426.13
2023-01-25T18:13:15.977Z,102422.88
2023-01-25T18:15:45.429Z,102424.84
2023-01-25T18:18:14.925Z,102410.75
2023-01-25T18:20:44.314Z,102403.63
2023-01-25T18:23:13.777Z,102415.13
2023-01-25T18:25:43.142Z,102414.50
2023-01-25T18:28:18.363Z,102406.53
2023-01-25T18:30:53.617Z,102402.63
2023-01-25T18:33:23.435Z,102397.72
2023-01-25T18:35:54.010Z,102386.00
2023-01-25T18:38:23.410Z,102388.13
2023-01-25T18:40:52.775Z,102394.31
2023-01-25T18:43:25.111Z,102395.94
2023-01-25T18:45:57.936Z,102398.22
2023-01-25T18:48:30.456Z,102387.66
2023-01-25T18:51:00.726Z,102388.09
2023-01-25T18:53:30.220Z,102385.44
2023-01-25T18:56:04.073Z,102391.41
2023-01-25T18:58:37.626Z,102386.56
2023-01-25T19:01:09.347Z,102393.06
2023-01-25T19:03:38.735Z,102386.19
2023-01-25T19:06:08.676Z,102388.28
2023-01-25T19:08:41.335Z,102385.28
2023-01-25T19:11:12.405Z,102375.97
2023-01-25T19:13:45.296Z,102385.78
2023-01-25T19:16:16.619Z,102386.56
2023-01-25T19:18:49.768Z,102384.03
2023-01-25T19:21:20.587Z,102377.38
2023-01-25T19:23:50.367Z,102373.16
2023-01-25T19:26:21.413Z,102365.56
2023-01-25T19:28:53.677Z,102367.13
2023-01-25T19:31:24.323Z,102364.28
2023-01-25T19:33:57.612Z,102360.69
2023-01-25T19:36:27.022Z,102365.00
2023-01-25T19:38:57.389Z,102353.16
2023-01-25T19:41:28.495Z,102359.69
2023-01-25T19:44:01.819Z,102361.44
2023-01-25T19:46:32.888Z,102355.72
2023-01-25T19:49:04.230Z,102346.88
2023-01-25T19:51:34.869Z,102344.47
2023-01-25T19:54:06.045Z,102345.66
2023-01-25T19:56:36.901Z,102347.72
2023-01-25T19:59:10.582Z,102344.31
2023-01-25T20:01:44.197Z,102344.09
2023-01-25T20:04:14.695Z,102345.00
2023-01-25T20:06:44.507Z,102343.97
2023-01-25T20:09:14.979Z,102345.75
2023-01-25T20:11:44.595Z,102342.59
2023-01-25T20:14:16.804Z,102340.94
2023-01-25T20:16:47.084Z,102339.94
2023-01-25T20:19:16.490Z,102328.41
2023-01-25T20:21:45.897Z,102309.13
2023-01-25T20:24:15.330Z,102310.34
2023-01-25T20:26:45.181Z,102320.41
2023-01-25T20:29:17.291Z,102323.28
2023-01-25T20:31:48.077Z,102322.22
2023-01-25T20:34:19.157Z,102316.88
2023-01-25T20:36:49.166Z,102317.59
2023-01-25T20:39:20.974Z,102323.28
2023-01-25T20:41:53.272Z,102319.56
2023-01-25T20:44:25.495Z,102316.53
2023-01-25T20:46:55.726Z,102319.09
2023-01-25T20:49:25.387Z,102307.88
2023-01-25T20:51:54.789Z,102315.09
2023-01-25T20:54:24.147Z,102313.28
2023-01-25T20:56:53.588Z,102307.53
2023-01-25T20:59:25.619Z,102303.44
2023-01-25T21:01:55.210Z,102312.22
2023-01-25T21:04:24.782Z,102309.84
2023-01-25T21:06:54.235Z,102311.13
2023-01-25T21:09:26.233Z,102303.38
2023-01-25T21:11:55.682Z,102301.53
2023-01-25T21:14:30.615Z,102298.66
2023-01-25T21:17:00.743Z,102296.84
2023-01-25T21:19:30.168Z,102298.50
2023-01-25T21:21:59.590Z,102294.19
2023-01-25T21:24:29.028Z,102295.25
2023-01-25T21:26:58.408Z,102286.56
2023-01-25T21:29:30.375Z,102286.91
2023-01-25T21:31:59.802Z,102285.84
2023-01-25T21:34:30.936Z,102280.09
2023-01-25T21:37:00.348Z,102269.97
2023-01-25T21:39:29.761Z,102262.25
2023-01-25T21:41:59.148Z,102263.13
2023-01-25T21:44:43.570Z,102265.28
2023-01-25T21:47:29.369Z,102244.00
2023-01-25T21:50:12.384Z,102242.16
2023-01-25T21:52:42.008Z,102245.09
2023-01-25T21:55:12.707Z,102229.56
2023-01-25T21:57:47.110Z,102229.03
2023-01-25T22:00:20.649Z,102225.97
2023-01-25T22:02:50.329Z,102223.97
2023-01-25T22:05:19.773Z,102238.19
2023-01-25T22:07:49.179Z,102228.09
2023-01-25T22:10:19.434Z,102224.50
2023-01-25T22:12:50.712Z,102218.00
2023-01-25T22:15:22.715Z,102214.59
2023-01-25T22:17:52.090Z,102204.28
2023-01-25T22:20:21.710Z,102209.72
2023-01-25T22:22:51.110Z,102209.72
2023-01-25T22:25:20.482Z,102211.88
2023-01-25T22:27:55.282Z,102213.34
2023-01-25T22:30:27.500Z,102204.16
2023-01-25T22:32:57.068Z,102209.34
2023-01-25T22:35:26.516Z,102202.31
2023-01-25T22:37:55.919Z,102203.03
2023-01-25T22:40:25.292Z,102213.31
2023-01-25T22:42:54.659Z,102213.84
2023-01-25T22:45:24.076Z,102220.16
2023-01-25T22:47:56.027Z,102216.91
2023-01-25T22:50:25.476Z,102210.25
2023-01-25T22:52:54.829Z,102209.72
2023-01-25T22:55:24.195Z,102218.19
2023-01-25T22:57:53.819Z,102213.34
2023-01-25T23:00:23.675Z,102207.38
2023-01-25T23:02:53.071Z,102206.09
2023-01-25T23:05:25.061Z,102211.53
2023-01-25T23:07:54.461Z,102200.69
2023-01-25T23:10:23.933Z,102192.75
2023-01-25T23:12:55.295Z,102193.47
2023-01-25T23:15:24.901Z,102195.66
2023-01-25T23:18:06.784Z,102184.84
2023-01-25T23:20:38.766Z,102175.47
2023-01-25T23:23:08.225Z,102171.16
2023-01-25T23:25:37.629Z,102168.28
2023-01-25T23:28:07.090Z,102166.09
2023-01-25T23:30:36.549Z,102163.75
2023-01-25T23:33:06.118Z,102160.66
2023-01-25T23:35:38.113Z,102160.31
2023-01-25T23:38:16.031Z,102152.00
2023-01-25T23:40:45.632Z,102158.13
2023-01-25T23:43:15.032Z,102151.81
2023-01-25T23:45:45.565Z,102144.09
2023-01-25T23:48:14.979Z,102143.50
2023-01-25T23:50:46.995Z,102131.63
2023-01-25T23:53:16.371Z,102132.72
2023-01-25T23:55:54.229Z,102131.78
2023-01-25T23:58:24.432Z,102130.72
